Weather History for Payson, AZ

Change the Weather History Date:

Tuesday, March 18, 2014

  Actual Average Record
Temperature  
Mean Temperature 50 °F -  
Max Temperature 60 °F 63 °F 64 °F (2013)
Min Temperature 39 °F 29 °F 28 °F (2012)
Degree Days  
Heating Degree Days 16    
Moisture  
Dew Point 2 °F    
Average Humidity 15    
Maximum Humidity 26    
Minimum Humidity 6    
Precipitation  
Precipitation 0.00 in - - ()
Sea Level Pressure  
Sea Level Pressure 29.92 in    
Wind  
Wind Speed 7 mph (NW)    
Max Wind Speed 17 mph    
Max Gust Speed 24 mph    
Visibility 10 miles    
Events      
Averages and records for this station are not official NWS values.
T = Trace of Precipitation, MM = Missing Value Source: NWS Daily Summary

Daily Weather History Graph

Daily Weather History Graph

Search for Another Location

Airport:

Trip Planner

Search our weather history database for the weather conditions in past years. The results will help you decide how hot, cold, wet, or windy it might be!

Date:

Astronomy

Mar. 18, 2014 Rise Set
Actual Time 6:31 AM MST 6:35 PM MST
Civil Twilight 6:06 AM MST 7:00 PM MST
Nautical Twilight 5:37 AM MST 7:29 PM MST
Astronomical Twilight 5:08 AM MST 7:59 PM MST
Moon 8:49 PM MST (3/18) 7:29 AM MST (3/18)
Length of Visible Light 12h 53m
Length of Day
12h 03m
Waning Gibbous, 96% of the Moon is Illuminated
Mar 18
Waning Gibbous
Mar 23
Last Quarter
Mar 30
New
Apr 7
First Quarter
Apr 15
Full

Hourly Weather History & Observations

Time (MST) Temp. Windchill Dew Point Humidity Pressure Visibility Wind Dir Wind Speed Gust Speed Precip Events Conditions
12:15 AM 53.6 °F - 14.0 °F 21% 29.79 in 10.0 mi WNW 5.8 mph - N/A   Clear
12:35 AM 53.6 °F - 14.0 °F 21% 29.79 in 10.0 mi West 8.1 mph - N/A   Clear
12:55 AM 53.6 °F - 14.0 °F 21% 29.80 in 10.0 mi West 8.1 mph - N/A   Clear
1:15 AM 53.6 °F - 14.0 °F 21% 29.81 in 10.0 mi West 9.2 mph - N/A   Clear
1:35 AM 53.6 °F - 12.2 °F 19% 29.81 in 10.0 mi West 9.2 mph - N/A   Clear
1:55 AM 51.8 °F - 8.6 °F 18% 29.81 in 10.0 mi WNW 9.2 mph - N/A   Clear
2:15 AM 51.8 °F - 8.6 °F 18% 29.82 in 10.0 mi WNW 12.7 mph 19.6 mph N/A   Clear
2:35 AM 51.8 °F - 8.6 °F 18% 29.82 in 10.0 mi WNW 9.2 mph 15.0 mph N/A   Clear
2:55 AM 51.8 °F - 8.6 °F 18% 29.82 in 10.0 mi West 8.1 mph 16.1 mph N/A   Clear
3:15 AM 50.0 °F - 8.6 °F 19% 29.81 in 10.0 mi West 5.8 mph 12.7 mph N/A   Clear
3:35 AM 48.2 °F - 8.6 °F 20% 29.81 in 10.0 mi WSW 8.1 mph - N/A   Clear
3:55 AM 48.2 °F - 8.6 °F 20% 29.82 in 10.0 mi West 6.9 mph - N/A   Clear
4:15 AM 48.2 °F - 8.6 °F 20% 29.83 in 10.0 mi Calm Calm - N/A   Clear
4:35 AM 46.4 °F 43.5 °F 8.6 °F 22% 29.83 in 10.0 mi NNW 5.8 mph - N/A   Clear
4:55 AM 46.4 °F 42.9 °F 5.0 °F 18% 29.83 in 10.0 mi NW 6.9 mph - N/A   Clear
5:15 AM 44.6 °F 41.4 °F 5.0 °F 20% 29.84 in 10.0 mi North 5.8 mph 13.8 mph N/A   Clear
5:35 AM 42.8 °F 38.0 °F 6.8 °F 23% 29.85 in 10.0 mi NNE 8.1 mph - N/A   Clear
5:55 AM 41.0 °F 35.8 °F 5.0 °F 23% 29.85 in 10.0 mi NNE 8.1 mph 16.1 mph N/A   Clear
6:15 AM 41.0 °F 32.5 °F 1.4 °F 19% 29.86 in 10.0 mi NNE 17.3 mph 24.2 mph N/A   Clear
6:35 AM 39.2 °F 30.8 °F 1.4 °F 21% 29.87 in 10.0 mi NNE 15.0 mph - N/A   Clear
6:55 AM 39.2 °F 32.0 °F -0.4 °F 19% 29.89 in 10.0 mi NE 11.5 mph 19.6 mph N/A   Clear
7:15 AM 39.2 °F 31.6 °F -0.4 °F 19% 29.91 in 10.0 mi NNE 12.7 mph - N/A   Clear
7:35 AM 39.2 °F 31.2 °F -2.2 °F 17% 29.91 in 10.0 mi NNE 13.8 mph 19.6 mph N/A   Clear
7:55 AM 41.0 °F 35.2 °F -2.2 °F 16% 29.92 in 10.0 mi North 9.2 mph - N/A   Clear
8:15 AM 42.8 °F 39.3 °F -2.2 °F 15% 29.92 in 10.0 mi NNE 5.8 mph - N/A   Clear
8:35 AM 42.8 °F 36.6 °F -0.4 °F 16% 29.93 in 10.0 mi NE 11.5 mph - N/A   Clear
8:55 AM 44.6 °F 38.1 °F -0.4 °F 15% 29.93 in 10.0 mi NE 13.8 mph 21.9 mph N/A   Clear
9:15 AM 46.4 °F 40.7 °F -0.4 °F 14% 29.94 in 10.0 mi ENE 12.7 mph 18.4 mph N/A   Clear
9:35 AM 46.4 °F 40.7 °F -0.4 °F 14% 29.96 in 10.0 mi NE 12.7 mph - N/A   Clear
9:55 AM 48.2 °F - -0.4 °F 13% 29.97 in 10.0 mi NNE 10.4 mph - N/A   Clear
10:15 AM 48.2 °F - -0.4 °F 13% 29.97 in 10.0 mi NE 6.9 mph 13.8 mph N/A   Clear
10:35 AM 50.0 °F - -2.2 °F 12% 29.96 in 10.0 mi ENE 8.1 mph - N/A   Clear
10:55 AM 51.8 °F - -0.4 °F 12% 29.96 in 10.0 mi NNE 11.5 mph - N/A   Clear
11:15 AM 51.8 °F - -5.8 °F 9% 29.96 in 10.0 mi Calm Calm 15.0 mph N/A   Clear
11:35 AM 53.6 °F - -2.2 °F 10% 29.96 in 10.0 mi Variable 5.8 mph 12.7 mph N/A   Clear
11:55 AM 53.6 °F - -2.2 °F 10% 29.96 in 10.0 mi Variable 4.6 mph - N/A   Clear
12:15 PM 55.4 °F - -5.8 °F 8% 29.96 in 10.0 mi Calm Calm - N/A   Clear
12:35 PM 55.4 °F - -5.8 °F 8% 29.95 in 10.0 mi Calm Calm - N/A   Clear
12:55 PM 57.2 °F - -7.6 °F 7% 29.94 in 10.0 mi Calm Calm - N/A   Clear
1:15 PM 57.2 °F - -7.6 °F 7% 29.94 in 10.0 mi Variable 3.5 mph - N/A   Clear
1:35 PM 59.0 °F - -5.8 °F 7% 29.93 in 10.0 mi Variable 3.5 mph - N/A   Clear
1:55 PM 60.8 °F - -5.8 °F 7% 29.93 in 10.0 mi West 9.2 mph 15.0 mph N/A   Clear
2:15 PM 59.0 °F - -7.6 °F 6% 29.92 in 10.0 mi Variable 6.9 mph 15.0 mph N/A   Clear
2:35 PM 59.0 °F - -9.4 °F 6% 29.92 in 10.0 mi West 8.1 mph 16.1 mph N/A   Clear
2:55 PM 60.8 °F - -7.6 °F 6% 29.91 in 10.0 mi WSW 12.7 mph - N/A   Clear
3:15 PM 60.8 °F - -5.8 °F 7% 29.92 in 10.0 mi West 11.5 mph - N/A   Clear
3:35 PM 60.8 °F - -5.8 °F 7% 29.91 in 10.0 mi WNW 11.5 mph 17.3 mph N/A   Clear
3:55 PM 60.8 °F - -4.0 °F 7% 29.92 in 10.0 mi SW 9.2 mph 17.3 mph N/A   Clear
4:15 PM 60.8 °F - -4.0 °F 7% 29.92 in 10.0 mi West 9.2 mph 16.1 mph N/A   Clear
4:35 PM 60.8 °F - -4.0 °F 7% 29.92 in 10.0 mi West 10.4 mph 16.1 mph N/A   Clear
4:55 PM 60.8 °F - -2.2 °F 8% 29.92 in 10.0 mi WSW 8.1 mph - N/A   Clear
5:15 PM 59.0 °F - -2.2 °F 8% 29.92 in 10.0 mi West 6.9 mph 13.8 mph N/A   Clear
5:35 PM 59.0 °F - -2.2 °F 8% 29.93 in 10.0 mi Variable 5.8 mph 12.7 mph N/A   Clear
5:55 PM 59.0 °F - -0.4 °F 9% 29.93 in 10.0 mi WSW 5.8 mph 11.5 mph N/A   Clear
6:15 PM 57.2 °F - -0.4 °F 10% 29.94 in 10.0 mi WSW 4.6 mph - N/A   Clear
6:35 PM 55.4 °F - 1.4 °F 11% 29.94 in 10.0 mi West 4.6 mph - N/A   Clear
6:55 PM 53.6 °F - 3.2 °F 13% 29.95 in 10.0 mi WSW 5.8 mph - N/A   Clear
7:15 PM 53.6 °F - 6.8 °F 15% 29.95 in 10.0 mi WSW 4.6 mph - N/A   Clear
7:35 PM 53.6 °F - 3.2 °F 13% 29.96 in 10.0 mi West 5.8 mph - N/A   Clear
7:55 PM 51.8 °F - 5.0 °F 15% 29.97 in 10.0 mi WSW 4.6 mph - N/A   Clear
8:15 PM 50.0 °F - 5.0 °F 16% 29.98 in 10.0 mi West 4.6 mph - N/A   Clear
8:35 PM 50.0 °F - 5.0 °F 16% 29.99 in 10.0 mi West 6.9 mph - N/A   Clear
8:55 PM 48.2 °F - 5.0 °F 17% 29.99 in 10.0 mi Calm Calm - N/A   Clear
9:15 PM 48.2 °F - 5.0 °F 17% 30.00 in 10.0 mi Calm Calm - N/A   Clear
9:35 PM 46.4 °F 42.4 °F 5.0 °F 18% 30.01 in 10.0 mi East 8.1 mph - N/A   Clear
9:55 PM 46.4 °F 44.3 °F 6.8 °F 20% 30.01 in 10.0 mi ENE 4.6 mph - N/A   Clear
10:15 PM 48.2 °F - 5.0 °F 17% 30.01 in 10.0 mi ENE 4.6 mph - N/A   Clear
10:35 PM 46.4 °F - 5.0 °F 18% 30.01 in 10.0 mi Calm Calm - N/A   Clear
10:55 PM 44.6 °F - 6.8 °F 21% 30.02 in 10.0 mi Calm Calm - N/A   Clear
11:15 PM 42.8 °F - 8.6 °F 25% 30.02 in 10.0 mi Calm Calm - N/A   Clear
11:35 PM 41.0 °F - 8.6 °F 26% 30.02 in 10.0 mi Calm Calm - N/A   Clear
11:55 PM 41.0 °F - 6.8 °F 24% 30.02 in 10.0 mi Calm Calm - N/A   Clear